createdAt,value
2023-06-29T00:03:58.504Z,26.9
2023-06-29T00:24:02.810Z,26.9
2023-06-29T00:34:05.189Z,26.9
2023-06-29T00:44:07.838Z,26.9
2023-06-29T00:54:09.841Z,26.9
2023-06-29T01:04:11.859Z,26.9
2023-06-29T01:14:14.007Z,26.9
2023-06-29T01:24:16.430Z,26.9
2023-06-29T01:34:18.937Z,26.8
2023-06-29T01:44:21.281Z,26.8
2023-06-29T01:54:23.204Z,26.8
2023-06-29T02:04:25.320Z,26.8
2023-06-29T02:14:27.105Z,26.8
2023-06-29T02:24:29.520Z,26.8
2023-06-29T02:34:31.618Z,26.8
2023-06-29T02:44:33.994Z,26.7
2023-06-29T02:54:36.232Z,26.7
2023-06-29T03:04:38.214Z,26.8
2023-06-29T03:24:42.204Z,26.8
2023-06-29T03:34:44.624Z,26.8
2023-06-29T03:44:47.278Z,26.8
2023-06-29T03:54:49.315Z,26.8
2023-06-29T04:04:51.559Z,26.9
2023-06-29T04:14:53.521Z,27
2023-06-29T04:24:55.419Z,27.1
2023-06-29T04:34:58.112Z,27.2
2023-06-29T04:45:00.361Z,27.2
2023-06-29T04:55:02.705Z,27.1
2023-06-29T05:05:04.521Z,27.2
2023-06-29T05:15:06.831Z,27.3
2023-06-29T05:25:08.947Z,27.2
2023-06-29T05:35:11.093Z,27.3
2023-06-29T05:45:13.381Z,27.4
2023-06-29T05:55:15.717Z,27.4
2023-06-29T06:05:17.539Z,27.4
2023-06-29T06:15:19.445Z,27.5
2023-06-29T06:25:21.876Z,27.8
2023-06-29T06:35:24.120Z,27.7
2023-06-29T06:45:26.310Z,27.7
2023-06-29T06:55:28.481Z,27.8
2023-06-29T07:05:30.344Z,27.6
2023-06-29T07:15:32.509Z,27.9
2023-06-29T07:25:34.246Z,28.4
2023-06-29T07:35:36.133Z,28.6
2023-06-29T07:45:38.566Z,28.5
2023-06-29T07:55:40.639Z,28.8
2023-06-29T08:15:45.594Z,28.5
2023-06-29T08:25:47.364Z,28.4
2023-06-29T08:35:49.306Z,28.3
2023-06-29T08:45:51.549Z,28.2
2023-06-29T08:55:54.027Z,28.2
2023-06-29T09:05:56.394Z,28.3
2023-06-29T09:15:58.281Z,28.4
2023-06-29T09:26:00.322Z,28.5
2023-06-29T09:36:02.846Z,28.5
2023-06-29T09:46:05.053Z,28.5
2023-06-29T09:56:07.362Z,28.4
2023-06-29T10:06:10.039Z,28.4
2023-06-29T10:16:12.003Z,28.3
2023-06-29T10:26:14.391Z,28.3
2023-06-29T10:36:16.172Z,28.1
2023-06-29T10:46:18.657Z,28.1
2023-06-29T10:56:20.576Z,28.1
2023-06-29T11:16:24.130Z,28.9
2023-06-29T11:36:28.112Z,29.2
2023-06-29T11:46:30.415Z,29.7
2023-06-29T11:56:32.184Z,30.1
2023-06-29T12:36:40.842Z,28.8
2023-06-29T12:46:42.597Z,28.6
2023-06-29T12:56:45.174Z,28.4
2023-06-29T13:06:47.515Z,28.3
2023-06-29T13:16:49.496Z,28.4
2023-06-29T13:36:53.632Z,29
2023-06-29T13:46:55.853Z,28.9
2023-06-29T13:56:58.088Z,28.7
2023-06-29T14:07:00.347Z,28.8
2023-06-29T14:17:02.549Z,28.7
2023-06-29T14:27:04.907Z,29.1
2023-06-29T14:37:06.793Z,29.2
2023-06-29T14:47:08.971Z,29.2
2023-06-29T15:07:13.736Z,29.1
2023-06-29T15:17:16.110Z,29
2023-06-29T15:27:40.425Z,28.7
2023-06-29T15:37:28.204Z,28.7
2023-06-29T15:47:30.017Z,28.7
2023-06-29T15:57:31.962Z,28.5
2023-06-29T16:07:34.055Z,28.6
2023-06-29T16:17:36.122Z,28.5
2023-06-29T16:27:37.879Z,28.4
2023-06-29T16:37:40.104Z,28.4
2023-06-29T16:47:41.947Z,28.3
2023-06-29T16:57:43.858Z,28.2
2023-06-29T17:07:46.129Z,28
2023-06-29T17:17:48.670Z,27.9
2023-06-29T18:07:59.938Z,28
2023-06-29T18:48:08.134Z,27.7
2023-06-29T19:08:12.065Z,27.6
2023-06-29T19:18:13.924Z,27.5
2023-06-29T19:28:15.676Z,27.5
2023-06-29T19:48:20.202Z,27.4
2023-06-29T19:58:22.803Z,27.3
2023-06-29T20:08:25.062Z,27.3
2023-06-29T20:18:26.869Z,27.3
2023-06-29T20:28:28.744Z,27.3
2023-06-29T20:38:30.871Z,27.2
2023-06-29T20:48:33.043Z,27.2
2023-06-29T20:58:34.816Z,27.2
2023-06-29T21:08:36.664Z,27.2
2023-06-29T21:18:38.800Z,27.1
2023-06-29T21:28:41.309Z,27.1
2023-06-29T21:38:50.335Z,27.1
2023-06-29T21:48:45.705Z,27.1
2023-06-29T21:58:48.304Z,27
2023-06-29T22:08:50.437Z,27
2023-06-29T22:18:53.271Z,27
2023-06-29T22:28:54.919Z,26.9
2023-06-29T22:38:57.235Z,26.9
2023-06-29T22:48:59.639Z,26.9
2023-06-29T22:59:02.205Z,26.8
2023-06-29T23:09:04.028Z,26.8
2023-06-29T23:19:06.173Z,26.8
2023-06-29T23:29:08.397Z,26.8
2023-06-29T23:39:10.406Z,26.7
2023-06-29T23:59:14.699Z,26.7
